To NAV CANADA Home Page Login to a new session Search on AWWS site Disclaimer Vers la page française équivalente Tips FAQ What's new on the site To the Forecasts and Observations / NOTAM section To "File a Flight Plan" website Publications and other links Update of the User's profile FIC Telephone Numbers My Weather Data Folder Route Weather Data Regional Weather Data Local Weather Data To the Forecasts and Observations / NOTAM section
Request Generated 10/19/2018 at 15:41:31 UTC . Weather information available at that time is displayed.

METAR/TAF

COLD LAKE/GROUP CAPTAIN R.W. MCNAIR/AB    

METAR CYOD 191500Z 26006KT 15SM FEW130 00/M02 A3021 RMK AC1 SLP254=
METAR CYOD 191400Z 20002KT 15SM FEW040 M01/M03 A3021 RMK SC1 SC TR SLP254=
METAR CYOD 191300Z 24004KT 15SM FEW040 00/M03 A3019 RMK SC1 SLP246=

TAF CYOD 191430Z 1915/2012 27005KT P6SM FEW040
BECMG 1916/1918 32010KT
FM192000 34010KT P6SM BKN030
FM200000 36005KT P6SM FEW030 SCT220
BECMG 2002/2004 12005KT
FM200600 13005KT P6SM SCT150 BKN220
BECMG 2008/2010 BKN100 OVC180
RMK NXT FCST BY 191800Z=
Your time UTC time
Weather data provided by Environment Canada and NAV CANADA